sensor_id;sensor_type;location;lat;lon;timestamp;temperature;humidity
9998;DHT22;5038;53.064;8.624;2023-12-14T00:01:22;5.00;99.90
9998;DHT22;5038;53.064;8.624;2023-12-14T00:03:50;5.00;99.90
9998;DHT22;5038;53.064;8.624;2023-12-14T00:06:19;5.00;99.90
9998;DHT22;5038;53.064;8.624;2023-12-14T00:08:47;5.00;99.90
9998;DHT22;5038;53.064;8.624;2023-12-14T00:11:16;5.00;99.90
9998;DHT22;5038;53.064;8.624;2023-12-14T00:13:44;4.90;99.90
9998;DHT22;5038;53.064;8.624;2023-12-14T00:16:14;4.90;99.90
9998;DHT22;5038;53.064;8.624;2023-12-14T00:18:42;4.90;99.90
9998;DHT22;5038;53.064;8.624;2023-12-14T00:21:10;4.90;99.90
9998;DHT22;5038;53.064;8.624;2023-12-14T00:23:38;4.90;99.90
9998;DHT22;5038;53.064;8.624;2023-12-14T00:26:07;4.90;99.90
9998;DHT22;5038;53.064;8.624;2023-12-14T00:28:35;4.90;99.90
9998;DHT22;5038;53.064;8.624;2023-12-14T00:31:04;4.90;99.90
9998;DHT22;5038;53.064;8.624;2023-12-14T00:33:33;4.90;99.90
9998;DHT22;5038;53.064;8.624;2023-12-14T00:36:02;4.90;99.90
9998;DHT22;5038;53.064;8.624;2023-12-14T00:38:30;4.90;99.90
9998;DHT22;5038;53.064;8.624;2023-12-14T00:40:59;4.80;99.90
9998;DHT22;5038;53.064;8.624;2023-12-14T00:43:27;4.90;99.90
9998;DHT22;5038;53.064;8.624;2023-12-14T00:45:56;4.90;99.90
9998;DHT22;5038;53.064;8.624;2023-12-14T00:48:24;4.90;99.90
9998;DHT22;5038;53.064;8.624;2023-12-14T00:50:54;4.90;99.90
9998;DHT22;5038;53.064;8.624;2023-12-14T00:53:22;4.90;99.90
9998;DHT22;5038;53.064;8.624;2023-12-14T00:55:50;5.00;99.90
9998;DHT22;5038;53.064;8.624;2023-12-14T00:58:18;5.00;99.90
9998;DHT22;5038;53.064;8.624;2023-12-14T01:00:47;4.90;99.90
9998;DHT22;5038;53.064;8.624;2023-12-14T01:03:15;4.90;99.90
9998;DHT22;5038;53.064;8.624;2023-12-14T01:05:43;4.90;99.90
9998;DHT22;5038;53.064;8.624;2023-12-14T01:08:13;4.90;99.90
9998;DHT22;5038;53.064;8.624;2023-12-14T01:10:42;4.90;99.90
9998;DHT22;5038;53.064;8.624;2023-12-14T01:13:11;4.90;99.90
9998;DHT22;5038;53.064;8.624;2023-12-14T01:15:39;4.80;99.90
9998;DHT22;5038;53.064;8.624;2023-12-14T01:18:07;4.80;99.90
9998;DHT22;5038;53.064;8.624;2023-12-14T01:20:36;4.80;99.90
9998;DHT22;5038;53.064;8.624;2023-12-14T01:23:05;4.80;99.90
9998;DHT22;5038;53.064;8.624;2023-12-14T01:25:37;4.80;99.90
9998;DHT22;5038;53.064;8.624;2023-12-14T01:28:06;4.80;99.90
9998;DHT22;5038;53.064;8.624;2023-12-14T01:30:35;4.80;99.90
9998;DHT22;5038;53.064;8.624;2023-12-14T01:33:03;4.80;99.90
9998;DHT22;5038;53.064;8.624;2023-12-14T01:35:32;4.80;99.90
9998;DHT22;5038;53.064;8.624;2023-12-14T01:38:00;4.80;99.90
9998;DHT22;5038;53.064;8.624;2023-12-14T01:40:29;4.80;99.90
9998;DHT22;5038;53.064;8.624;2023-12-14T01:43:08;4.80;99.90
9998;DHT22;5038;53.064;8.624;2023-12-14T01:45:37;4.80;99.90
9998;DHT22;5038;53.064;8.624;2023-12-14T01:48:05;4.90;99.90
9998;DHT22;5038;53.064;8.624;2023-12-14T01:50:34;4.80;99.90
9998;DHT22;5038;53.064;8.624;2023-12-14T01:53:02;4.80;99.90
9998;DHT22;5038;53.064;8.624;2023-12-14T01:55:30;4.80;99.90
9998;DHT22;5038;53.064;8.624;2023-12-14T01:57:59;4.80;99.90
9998;DHT22;5038;53.064;8.624;2023-12-14T02:00:36;4.80;99.90
9998;DHT22;5038;53.064;8.624;2023-12-14T02:03:07;4.80;99.90
9998;DHT22;5038;53.064;8.624;2023-12-14T02:05:36;4.80;99.90
9998;DHT22;5038;53.064;8.624;2023-12-14T02:08:05;4.80;99.90
9998;DHT22;5038;53.064;8.624;2023-12-14T02:10:34;4.80;99.90
9998;DHT22;5038;53.064;8.624;2023-12-14T02:13:03;4.80;99.90
9998;DHT22;5038;53.064;8.624;2023-12-14T02:15:33;4.80;99.90
9998;DHT22;5038;53.064;8.624;2023-12-14T02:18:01;4.80;99.90
9998;DHT22;5038;53.064;8.624;2023-12-14T02:20:29;4.70;99.90
9998;DHT22;5038;53.064;8.624;2023-12-14T02:22:59;4.70;99.90
9998;DHT22;5038;53.064;8.624;2023-12-14T02:25:28;4.70;99.90
9998;DHT22;5038;53.064;8.624;2023-12-14T02:27:57;4.70;99.90
9998;DHT22;5038;53.064;8.624;2023-12-14T02:30:25;4.70;99.90
9998;DHT22;5038;53.064;8.624;2023-12-14T02:32:54;4.60;99.90
9998;DHT22;5038;53.064;8.624;2023-12-14T02:35:22;4.60;99.90
9998;DHT22;5038;53.064;8.624;2023-12-14T02:37:50;4.60;99.90
9998;DHT22;5038;53.064;8.624;2023-12-14T02:40:20;4.60;99.90
9998;DHT22;5038;53.064;8.624;2023-12-14T02:42:49;4.60;99.90
9998;DHT22;5038;53.064;8.624;2023-12-14T02:45:17;4.60;99.90
9998;DHT22;5038;53.064;8.624;2023-12-14T02:47:46;4.60;99.90
9998;DHT22;5038;53.064;8.624;2023-12-14T02:50:16;4.60;99.90
9998;DHT22;5038;53.064;8.624;2023-12-14T02:52:45;4.60;99.90
9998;DHT22;5038;53.064;8.624;2023-12-14T02:55:13;4.60;99.90
9998;DHT22;5038;53.064;8.624;2023-12-14T02:57:43;4.60;99.90
9998;DHT22;5038;53.064;8.624;2023-12-14T03:00:12;4.60;99.90
9998;DHT22;5038;53.064;8.624;2023-12-14T03:02:41;4.60;99.90
9998;DHT22;5038;53.064;8.624;2023-12-14T03:05:09;4.60;99.90
9998;DHT22;5038;53.064;8.624;2023-12-14T03:07:37;4.60;99.90
9998;DHT22;5038;53.064;8.624;2023-12-14T03:10:07;4.60;99.90
9998;DHT22;5038;53.064;8.624;2023-12-14T03:12:35;4.60;99.90
9998;DHT22;5038;53.064;8.624;2023-12-14T03:15:06;4.60;99.90
9998;DHT22;5038;53.064;8.624;2023-12-14T03:17:35;4.60;99.90
9998;DHT22;5038;53.064;8.624;2023-12-14T03:20:04;4.60;99.90
9998;DHT22;5038;53.064;8.624;2023-12-14T03:22:33;4.60;99.90
9998;DHT22;5038;53.064;8.624;2023-12-14T03:25:02;4.60;99.90
9998;DHT22;5038;53.064;8.624;2023-12-14T03:27:30;4.70;99.90
9998;DHT22;5038;53.064;8.624;2023-12-14T03:29:58;4.70;99.90
9998;DHT22;5038;53.064;8.624;2023-12-14T03:32:28;4.60;99.90
9998;DHT22;5038;53.064;8.624;2023-12-14T03:34:57;4.70;99.90
9998;DHT22;5038;53.064;8.624;2023-12-14T03:37:25;4.70;99.90
9998;DHT22;5038;53.064;8.624;2023-12-14T03:39:53;4.70;99.90
9998;DHT22;5038;53.064;8.624;2023-12-14T03:42:21;4.70;99.90
9998;DHT22;5038;53.064;8.624;2023-12-14T03:44:50;4.70;99.90
9998;DHT22;5038;53.064;8.624;2023-12-14T03:47:18;4.70;99.90
9998;DHT22;5038;53.064;8.624;2023-12-14T03:49:48;4.70;99.90
9998;DHT22;5038;53.064;8.624;2023-12-14T03:52:17;4.70;99.90
9998;DHT22;5038;53.064;8.624;2023-12-14T03:54:45;4.70;99.90
9998;DHT22;5038;53.064;8.624;2023-12-14T03:57:13;4.80;99.90
9998;DHT22;5038;53.064;8.624;2023-12-14T03:59:42;4.80;99.90
9998;DHT22;5038;53.064;8.624;2023-12-14T04:02:10;4.80;99.90
9998;DHT22;5038;53.064;8.624;2023-12-14T04:04:39;4.80;99.90
9998;DHT22;5038;53.064;8.624;2023-12-14T04:07:09;4.80;99.90
9998;DHT22;5038;53.064;8.624;2023-12-14T04:09:38;4.80;99.90
9998;DHT22;5038;53.064;8.624;2023-12-14T04:12:06;4.80;99.90
9998;DHT22;5038;53.064;8.624;2023-12-14T04:14:34;4.80;99.90
9998;DHT22;5038;53.064;8.624;2023-12-14T04:17:03;4.80;99.90
9998;DHT22;5038;53.064;8.624;2023-12-14T04:19:32;4.80;99.90
9998;DHT22;5038;53.064;8.624;2023-12-14T04:22:00;4.80;99.90
9998;DHT22;5038;53.064;8.624;2023-12-14T04:24:30;4.80;99.90
9998;DHT22;5038;53.064;8.624;2023-12-14T04:26:58;4.80;99.90
9998;DHT22;5038;53.064;8.624;2023-12-14T04:29:27;4.80;99.90
9998;DHT22;5038;53.064;8.624;2023-12-14T04:31:55;4.80;99.90
9998;DHT22;5038;53.064;8.624;2023-12-14T04:34:23;4.80;99.90
9998;DHT22;5038;53.064;8.624;2023-12-14T04:36:52;4.80;99.90
9998;DHT22;5038;53.064;8.624;2023-12-14T04:39:24;4.80;99.90
9998;DHT22;5038;53.064;8.624;2023-12-14T04:41:54;4.90;99.90
9998;DHT22;5038;53.064;8.624;2023-12-14T04:44:22;4.80;99.90
9998;DHT22;5038;53.064;8.624;2023-12-14T04:46:51;4.90;99.90
9998;DHT22;5038;53.064;8.624;2023-12-14T04:49:19;4.90;99.90
9998;DHT22;5038;53.064;8.624;2023-12-14T04:51:47;4.90;99.90
9998;DHT22;5038;53.064;8.624;2023-12-14T04:54:16;4.90;99.90
9998;DHT22;5038;53.064;8.624;2023-12-14T04:56:45;4.90;99.90
9998;DHT22;5038;53.064;8.624;2023-12-14T04:59:15;4.90;99.90
9998;DHT22;5038;53.064;8.624;2023-12-14T05:01:43;4.90;99.90
9998;DHT22;5038;53.064;8.624;2023-12-14T05:04:12;4.80;99.90
9998;DHT22;5038;53.064;8.624;2023-12-14T05:06:41;4.90;99.90
9998;DHT22;5038;53.064;8.624;2023-12-14T05:09:09;4.90;99.90
9998;DHT22;5038;53.064;8.624;2023-12-14T05:11:39;4.90;99.90
9998;DHT22;5038;53.064;8.624;2023-12-14T05:14:07;4.80;99.90
9998;DHT22;5038;53.064;8.624;2023-12-14T05:16:37;4.90;99.90
9998;DHT22;5038;53.064;8.624;2023-12-14T05:19:06;4.90;99.90
9998;DHT22;5038;53.064;8.624;2023-12-14T05:21:34;4.90;99.90
9998;DHT22;5038;53.064;8.624;2023-12-14T05:24:02;4.90;99.90
9998;DHT22;5038;53.064;8.624;2023-12-14T05:26:31;4.90;99.90
9998;DHT22;5038;53.064;8.624;2023-12-14T05:28:59;4.90;99.90
9998;DHT22;5038;53.064;8.624;2023-12-14T05:31:28;4.90;99.90
9998;DHT22;5038;53.064;8.624;2023-12-14T05:33:58;4.90;99.90
9998;DHT22;5038;53.064;8.624;2023-12-14T05:36:26;4.90;99.90
9998;DHT22;5038;53.064;8.624;2023-12-14T05:38:54;4.90;99.90
9998;DHT22;5038;53.064;8.624;2023-12-14T05:41:23;4.90;99.90
9998;DHT22;5038;53.064;8.624;2023-12-14T05:43:51;4.90;99.90
9998;DHT22;5038;53.064;8.624;2023-12-14T05:46:23;4.90;99.90
9998;DHT22;5038;53.064;8.624;2023-12-14T05:48:51;5.00;99.90
9998;DHT22;5038;53.064;8.624;2023-12-14T05:51:28;4.90;99.90
9998;DHT22;5038;53.064;8.624;2023-12-14T05:53:57;5.00;99.90
9998;DHT22;5038;53.064;8.624;2023-12-14T05:56:26;5.00;99.90
9998;DHT22;5038;53.064;8.624;2023-12-14T05:58:54;5.00;99.90
9998;DHT22;5038;53.064;8.624;2023-12-14T06:01:23;5.00;99.90
9998;DHT22;5038;53.064;8.624;2023-12-14T06:03:52;5.00;99.90
9998;DHT22;5038;53.064;8.624;2023-12-14T06:06:20;5.00;99.90
9998;DHT22;5038;53.064;8.624;2023-12-14T06:08:50;4.90;99.90
9998;DHT22;5038;53.064;8.624;2023-12-14T06:11:19;4.90;99.90
9998;DHT22;5038;53.064;8.624;2023-12-14T06:13:47;4.90;99.90
9998;DHT22;5038;53.064;8.624;2023-12-14T06:16:16;4.90;99.90
9998;DHT22;5038;53.064;8.624;2023-12-14T06:18:44;5.00;99.90
9998;DHT22;5038;53.064;8.624;2023-12-14T06:21:12;5.00;99.90
9998;DHT22;5038;53.064;8.624;2023-12-14T06:23:41;5.00;99.90
9998;DHT22;5038;53.064;8.624;2023-12-14T06:26:10;5.00;99.90
9998;DHT22;5038;53.064;8.624;2023-12-14T06:28:38;5.00;99.90
9998;DHT22;5038;53.064;8.624;2023-12-14T06:31:12;5.00;99.90
9998;DHT22;5038;53.064;8.624;2023-12-14T06:33:41;5.00;99.90
9998;DHT22;5038;53.064;8.624;2023-12-14T06:36:10;5.00;99.90
9998;DHT22;5038;53.064;8.624;2023-12-14T06:38:38;5.00;99.90
9998;DHT22;5038;53.064;8.624;2023-12-14T06:41:07;5.00;99.90
9998;DHT22;5038;53.064;8.624;2023-12-14T06:43:37;4.90;99.90
9998;DHT22;5038;53.064;8.624;2023-12-14T06:46:07;4.90;99.90
9998;DHT22;5038;53.064;8.624;2023-12-14T06:48:36;4.90;99.90
9998;DHT22;5038;53.064;8.624;2023-12-14T06:51:04;5.00;99.90
9998;DHT22;5038;53.064;8.624;2023-12-14T06:53:33;4.90;99.90
9998;DHT22;5038;53.064;8.624;2023-12-14T06:56:01;5.00;99.90
9998;DHT22;5038;53.064;8.624;2023-12-14T06:58:30;5.00;99.90
9998;DHT22;5038;53.064;8.624;2023-12-14T07:01:00;5.00;99.90
9998;DHT22;5038;53.064;8.624;2023-12-14T07:03:28;4.90;99.90
9998;DHT22;5038;53.064;8.624;2023-12-14T07:05:57;4.90;99.90
9998;DHT22;5038;53.064;8.624;2023-12-14T07:08:25;4.90;99.90
9998;DHT22;5038;53.064;8.624;2023-12-14T07:10:54;4.90;99.90
9998;DHT22;5038;53.064;8.624;2023-12-14T07:13:22;4.90;99.90
9998;DHT22;5038;53.064;8.624;2023-12-14T07:15:51;4.90;99.90
9998;DHT22;5038;53.064;8.624;2023-12-14T07:18:21;4.90;99.90
9998;DHT22;5038;53.064;8.624;2023-12-14T07:20:49;4.90;99.90
9998;DHT22;5038;53.064;8.624;2023-12-14T07:23:17;4.90;99.90
9998;DHT22;5038;53.064;8.624;2023-12-14T07:25:46;4.90;99.90
9998;DHT22;5038;53.064;8.624;2023-12-14T07:28:14;4.90;99.90
9998;DHT22;5038;53.064;8.624;2023-12-14T07:30:42;4.90;99.90
9998;DHT22;5038;53.064;8.624;2023-12-14T07:33:11;4.90;99.90
9998;DHT22;5038;53.064;8.624;2023-12-14T07:35:41;4.90;99.90
9998;DHT22;5038;53.064;8.624;2023-12-14T07:38:09;5.00;99.90
9998;DHT22;5038;53.064;8.624;2023-12-14T07:40:38;5.00;99.90
9998;DHT22;5038;53.064;8.624;2023-12-14T07:43:07;5.00;99.90
9998;DHT22;5038;53.064;8.624;2023-12-14T07:45:35;4.90;99.90
9998;DHT22;5038;53.064;8.624;2023-12-14T07:48:04;4.90;99.90
9998;DHT22;5038;53.064;8.624;2023-12-14T07:50:32;5.00;99.90
9998;DHT22;5038;53.064;8.624;2023-12-14T07:53:02;5.00;99.90
9998;DHT22;5038;53.064;8.624;2023-12-14T07:55:31;5.00;99.90
9998;DHT22;5038;53.064;8.624;2023-12-14T07:57:59;5.00;99.90
9998;DHT22;5038;53.064;8.624;2023-12-14T08:00:27;5.00;99.90
9998;DHT22;5038;53.064;8.624;2023-12-14T08:02:55;5.00;99.90
9998;DHT22;5038;53.064;8.624;2023-12-14T08:05:24;5.00;99.90
9998;DHT22;5038;53.064;8.624;2023-12-14T08:07:52;5.00;99.90
9998;DHT22;5038;53.064;8.624;2023-12-14T08:10:22;5.00;99.90
9998;DHT22;5038;53.064;8.624;2023-12-14T08:12:50;5.00;99.90
9998;DHT22;5038;53.064;8.624;2023-12-14T08:15:20;5.00;99.90
9998;DHT22;5038;53.064;8.624;2023-12-14T08:17:49;5.00;99.90
9998;DHT22;5038;53.064;8.624;2023-12-14T08:20:17;4.90;99.90
9998;DHT22;5038;53.064;8.624;2023-12-14T08:22:45;5.00;99.90
9998;DHT22;5038;53.064;8.624;2023-12-14T08:25:14;5.00;99.90
9998;DHT22;5038;53.064;8.624;2023-12-14T08:27:44;5.00;99.90
9998;DHT22;5038;53.064;8.624;2023-12-14T08:30:13;5.00;99.90
9998;DHT22;5038;53.064;8.624;2023-12-14T08:32:42;5.00;99.90
9998;DHT22;5038;53.064;8.624;2023-12-14T08:35:10;5.00;99.90
9998;DHT22;5038;53.064;8.624;2023-12-14T08:37:38;5.00;99.90
9998;DHT22;5038;53.064;8.624;2023-12-14T08:40:08;5.00;99.90
9998;DHT22;5038;53.064;8.624;2023-12-14T08:42:36;5.00;99.90
9998;DHT22;5038;53.064;8.624;2023-12-14T08:45:08;5.00;99.90
9998;DHT22;5038;53.064;8.624;2023-12-14T08:47:38;5.00;99.90
9998;DHT22;5038;53.064;8.624;2023-12-14T08:50:07;5.00;99.90
9998;DHT22;5038;53.064;8.624;2023-12-14T08:52:36;5.00;99.90
9998;DHT22;5038;53.064;8.624;2023-12-14T08:55:06;5.00;99.90
9998;DHT22;5038;53.064;8.624;2023-12-14T08:57:34;5.00;99.90
9998;DHT22;5038;53.064;8.624;2023-12-14T09:00:03;5.00;99.90
9998;DHT22;5038;53.064;8.624;2023-12-14T09:02:35;5.10;99.90
9998;DHT22;5038;53.064;8.624;2023-12-14T09:05:05;5.10;99.90
9998;DHT22;5038;53.064;8.624;2023-12-14T09:07:33;5.10;99.90
9998;DHT22;5038;53.064;8.624;2023-12-14T09:10:02;5.10;99.90
9998;DHT22;5038;53.064;8.624;2023-12-14T09:12:30;5.10;99.90
9998;DHT22;5038;53.064;8.624;2023-12-14T09:14:59;5.10;99.90
9998;DHT22;5038;53.064;8.624;2023-12-14T09:17:27;5.10;99.90
9998;DHT22;5038;53.064;8.624;2023-12-14T09:20:06;5.10;99.90
9998;DHT22;5038;53.064;8.624;2023-12-14T09:22:35;5.20;99.90
9998;DHT22;5038;53.064;8.624;2023-12-14T09:25:04;5.20;99.90
9998;DHT22;5038;53.064;8.624;2023-12-14T09:27:32;5.20;99.90
9998;DHT22;5038;53.064;8.624;2023-12-14T09:30:00;5.20;99.90
9998;DHT22;5038;53.064;8.624;2023-12-14T09:32:29;5.20;99.90
9998;DHT22;5038;53.064;8.624;2023-12-14T09:34:57;5.20;99.90
9998;DHT22;5038;53.064;8.624;2023-12-14T09:37:27;5.20;99.90
9998;DHT22;5038;53.064;8.624;2023-12-14T09:39:55;5.20;99.90
9998;DHT22;5038;53.064;8.624;2023-12-14T09:42:24;5.20;99.90
9998;DHT22;5038;53.064;8.624;2023-12-14T09:44:53;5.30;99.90
9998;DHT22;5038;53.064;8.624;2023-12-14T09:47:23;5.30;99.90
9998;DHT22;5038;53.064;8.624;2023-12-14T09:49:52;5.20;99.90
9998;DHT22;5038;53.064;8.624;2023-12-14T09:52:21;5.20;99.90
9998;DHT22;5038;53.064;8.624;2023-12-14T09:54:50;5.30;99.90
9998;DHT22;5038;53.064;8.624;2023-12-14T09:57:21;5.30;99.90
9998;DHT22;5038;53.064;8.624;2023-12-14T09:59:51;5.30;99.90
9998;DHT22;5038;53.064;8.624;2023-12-14T10:02:22;5.30;99.90
9998;DHT22;5038;53.064;8.624;2023-12-14T10:04:52;5.30;99.90
9998;DHT22;5038;53.064;8.624;2023-12-14T10:07:21;5.30;99.90
9998;DHT22;5038;53.064;8.624;2023-12-14T10:09:51;5.30;99.90
9998;DHT22;5038;53.064;8.624;2023-12-14T10:12:20;5.30;99.90
9998;DHT22;5038;53.064;8.624;2023-12-14T10:15:00;5.30;99.90
9998;DHT22;5038;53.064;8.624;2023-12-14T10:17:29;5.30;99.90
9998;DHT22;5038;53.064;8.624;2023-12-14T10:20:00;5.30;99.90
9998;DHT22;5038;53.064;8.624;2023-12-14T10:22:31;5.30;99.90
9998;DHT22;5038;53.064;8.624;2023-12-14T10:25:01;5.30;99.90
9998;DHT22;5038;53.064;8.624;2023-12-14T10:29:59;5.40;99.90
9998;DHT22;5038;53.064;8.624;2023-12-14T10:32:28;5.40;99.90
9998;DHT22;5038;53.064;8.624;2023-12-14T10:34:57;5.40;99.90
9998;DHT22;5038;53.064;8.624;2023-12-14T10:37:25;5.40;99.90
9998;DHT22;5038;53.064;8.624;2023-12-14T10:39:54;5.40;99.90
9998;DHT22;5038;53.064;8.624;2023-12-14T10:42:26;5.40;99.90
9998;DHT22;5038;53.064;8.624;2023-12-14T10:44:56;5.40;99.90
9998;DHT22;5038;53.064;8.624;2023-12-14T10:47:44;5.40;99.90
9998;DHT22;5038;53.064;8.624;2023-12-14T10:50:14;5.40;99.90
9998;DHT22;5038;53.064;8.624;2023-12-14T10:52:44;5.40;99.90
9998;DHT22;5038;53.064;8.624;2023-12-14T10:55:20;5.40;99.90
9998;DHT22;5038;53.064;8.624;2023-12-14T10:57:51;5.40;99.90
9998;DHT22;5038;53.064;8.624;2023-12-14T11:00:19;5.40;99.90
9998;DHT22;5038;53.064;8.624;2023-12-14T11:02:48;5.40;99.90
9998;DHT22;5038;53.064;8.624;2023-12-14T11:05:17;5.40;99.90
9998;DHT22;5038;53.064;8.624;2023-12-14T11:07:52;5.40;99.90
9998;DHT22;5038;53.064;8.624;2023-12-14T11:10:23;5.50;99.90
9998;DHT22;5038;53.064;8.624;2023-12-14T11:13:00;5.50;99.90
9998;DHT22;5038;53.064;8.624;2023-12-14T11:15:30;5.50;99.90
9998;DHT22;5038;53.064;8.624;2023-12-14T11:18:23;5.50;99.90
9998;DHT22;5038;53.064;8.624;2023-12-14T11:20:58;5.50;99.90
9998;DHT22;5038;53.064;8.624;2023-12-14T11:23:30;5.50;99.90
9998;DHT22;5038;53.064;8.624;2023-12-14T11:26:00;5.50;99.90
9998;DHT22;5038;53.064;8.624;2023-12-14T11:28:33;5.50;99.90
9998;DHT22;5038;53.064;8.624;2023-12-14T11:31:02;5.60;99.90
9998;DHT22;5038;53.064;8.624;2023-12-14T11:33:34;5.50;99.90
9998;DHT22;5038;53.064;8.624;2023-12-14T11:36:10;5.60;99.90
9998;DHT22;5038;53.064;8.624;2023-12-14T11:38:39;5.60;99.90
9998;DHT22;5038;53.064;8.624;2023-12-14T11:41:09;5.60;99.90
9998;DHT22;5038;53.064;8.624;2023-12-14T11:43:43;5.70;99.90
9998;DHT22;5038;53.064;8.624;2023-12-14T11:46:12;5.70;99.90
9998;DHT22;5038;53.064;8.624;2023-12-14T11:48:44;5.70;99.90
9998;DHT22;5038;53.064;8.624;2023-12-14T11:51:12;5.70;99.90
9998;DHT22;5038;53.064;8.624;2023-12-14T11:53:40;5.70;99.90
9998;DHT22;5038;53.064;8.624;2023-12-14T11:56:09;5.70;99.90
9998;DHT22;5038;53.064;8.624;2023-12-14T11:58:43;5.80;99.90
9998;DHT22;5038;53.064;8.624;2023-12-14T12:01:16;5.70;99.90
9998;DHT22;5038;53.064;8.624;2023-12-14T12:03:45;5.70;99.90
9998;DHT22;5038;53.064;8.624;2023-12-14T12:06:21;5.70;99.90
9998;DHT22;5038;53.064;8.624;2023-12-14T12:08:50;5.70;99.90
9998;DHT22;5038;53.064;8.624;2023-12-14T12:11:19;5.70;99.90
9998;DHT22;5038;53.064;8.624;2023-12-14T12:13:52;5.70;99.90
9998;DHT22;5038;53.064;8.624;2023-12-14T12:16:21;5.70;99.90
9998;DHT22;5038;53.064;8.624;2023-12-14T12:18:50;5.80;99.90
9998;DHT22;5038;53.064;8.624;2023-12-14T12:21:19;5.80;99.90
9998;DHT22;5038;53.064;8.624;2023-12-14T12:23:47;5.80;99.90
9998;DHT22;5038;53.064;8.624;2023-12-14T12:26:15;5.80;99.90
9998;DHT22;5038;53.064;8.624;2023-12-14T12:28:44;5.80;99.90
9998;DHT22;5038;53.064;8.624;2023-12-14T12:31:16;5.80;99.90
9998;DHT22;5038;53.064;8.624;2023-12-14T12:33:45;5.90;99.90
9998;DHT22;5038;53.064;8.624;2023-12-14T12:36:13;5.90;99.90
9998;DHT22;5038;53.064;8.624;2023-12-14T12:38:42;5.90;99.90
9998;DHT22;5038;53.064;8.624;2023-12-14T12:41:10;5.90;99.90
9998;DHT22;5038;53.064;8.624;2023-12-14T12:43:38;5.90;99.90
9998;DHT22;5038;53.064;8.624;2023-12-14T12:46:07;5.90;99.90
9998;DHT22;5038;53.064;8.624;2023-12-14T12:48:36;6.00;99.90
9998;DHT22;5038;53.064;8.624;2023-12-14T12:51:05;6.00;99.90
9998;DHT22;5038;53.064;8.624;2023-12-14T12:53:34;6.00;99.90
9998;DHT22;5038;53.064;8.624;2023-12-14T12:56:02;6.00;99.90
9998;DHT22;5038;53.064;8.624;2023-12-14T12:58:31;6.00;99.90
9998;DHT22;5038;53.064;8.624;2023-12-14T13:01:00;6.00;99.90
9998;DHT22;5038;53.064;8.624;2023-12-14T13:03:28;6.00;99.90
9998;DHT22;5038;53.064;8.624;2023-12-14T13:05:58;6.00;99.90
9998;DHT22;5038;53.064;8.624;2023-12-14T13:08:26;6.10;99.90
9998;DHT22;5038;53.064;8.624;2023-12-14T13:10:55;6.10;99.90
9998;DHT22;5038;53.064;8.624;2023-12-14T13:13:23;6.10;99.90
9998;DHT22;5038;53.064;8.624;2023-12-14T13:15:51;6.10;99.90
9998;DHT22;5038;53.064;8.624;2023-12-14T13:18:20;6.00;99.90
9998;DHT22;5038;53.064;8.624;2023-12-14T13:20:48;6.10;99.90
9998;DHT22;5038;53.064;8.624;2023-12-14T13:23:18;6.10;99.90
9998;DHT22;5038;53.064;8.624;2023-12-14T13:25:46;6.10;99.90
9998;DHT22;5038;53.064;8.624;2023-12-14T13:28:14;6.00;99.90
9998;DHT22;5038;53.064;8.624;2023-12-14T13:30:44;6.00;99.90
9998;DHT22;5038;53.064;8.624;2023-12-14T13:33:13;6.00;99.90
9998;DHT22;5038;53.064;8.624;2023-12-14T13:35:41;6.00;99.90
9998;DHT22;5038;53.064;8.624;2023-12-14T13:38:10;6.00;99.90
9998;DHT22;5038;53.064;8.624;2023-12-14T13:40:40;6.00;99.90
9998;DHT22;5038;53.064;8.624;2023-12-14T13:43:08;6.00;99.90
9998;DHT22;5038;53.064;8.624;2023-12-14T13:45:38;6.00;99.90
9998;DHT22;5038;53.064;8.624;2023-12-14T13:48:09;6.00;99.90
9998;DHT22;5038;53.064;8.624;2023-12-14T13:50:38;6.00;99.90
9998;DHT22;5038;53.064;8.624;2023-12-14T13:53:07;6.00;99.90
9998;DHT22;5038;53.064;8.624;2023-12-14T13:55:35;5.90;99.90
9998;DHT22;5038;53.064;8.624;2023-12-14T13:58:05;6.00;99.90
9998;DHT22;5038;53.064;8.624;2023-12-14T14:00:34;6.00;99.90
9998;DHT22;5038;53.064;8.624;2023-12-14T14:03:04;6.00;99.90
9998;DHT22;5038;53.064;8.624;2023-12-14T14:05:32;6.00;99.90
9998;DHT22;5038;53.064;8.624;2023-12-14T14:08:01;6.00;99.90
9998;DHT22;5038;53.064;8.624;2023-12-14T14:10:30;6.00;99.90
9998;DHT22;5038;53.064;8.624;2023-12-14T14:12:59;6.00;99.90
9998;DHT22;5038;53.064;8.624;2023-12-14T14:15:29;6.00;99.90
9998;DHT22;5038;53.064;8.624;2023-12-14T14:17:57;6.00;99.90
9998;DHT22;5038;53.064;8.624;2023-12-14T14:20:25;6.00;99.90
9998;DHT22;5038;53.064;8.624;2023-12-14T14:22:54;6.00;99.90
9998;DHT22;5038;53.064;8.624;2023-12-14T14:25:23;6.00;99.90
9998;DHT22;5038;53.064;8.624;2023-12-14T14:27:51;5.90;99.90
9998;DHT22;5038;53.064;8.624;2023-12-14T14:30:19;5.90;99.90
9998;DHT22;5038;53.064;8.624;2023-12-14T14:32:49;6.00;99.90
9998;DHT22;5038;53.064;8.624;2023-12-14T14:35:18;5.90;99.90
9998;DHT22;5038;53.064;8.624;2023-12-14T14:37:46;5.90;99.90
9998;DHT22;5038;53.064;8.624;2023-12-14T14:40:17;5.90;99.90
9998;DHT22;5038;53.064;8.624;2023-12-14T14:42:45;5.80;99.90
9998;DHT22;5038;53.064;8.624;2023-12-14T14:45:13;5.80;99.90
9998;DHT22;5038;53.064;8.624;2023-12-14T14:47:42;5.80;99.90
9998;DHT22;5038;53.064;8.624;2023-12-14T14:50:12;5.80;99.90
9998;DHT22;5038;53.064;8.624;2023-12-14T14:52:40;5.80;99.90
9998;DHT22;5038;53.064;8.624;2023-12-14T14:55:09;5.80;99.90
9998;DHT22;5038;53.064;8.624;2023-12-14T14:57:37;5.80;99.90
9998;DHT22;5038;53.064;8.624;2023-12-14T15:00:06;5.80;99.90
9998;DHT22;5038;53.064;8.624;2023-12-14T15:02:35;5.80;99.90
9998;DHT22;5038;53.064;8.624;2023-12-14T15:05:05;5.80;99.90
9998;DHT22;5038;53.064;8.624;2023-12-14T15:07:34;5.80;99.90
9998;DHT22;5038;53.064;8.624;2023-12-14T15:10:03;5.80;99.90
9998;DHT22;5038;53.064;8.624;2023-12-14T15:12:31;5.80;99.90
9998;DHT22;5038;53.064;8.624;2023-12-14T15:15:00;5.80;99.90
9998;DHT22;5038;53.064;8.624;2023-12-14T15:17:28;5.70;99.90
9998;DHT22;5038;53.064;8.624;2023-12-14T15:19:57;5.80;99.90
9998;DHT22;5038;53.064;8.624;2023-12-14T15:22:25;5.70;99.90
9998;DHT22;5038;53.064;8.624;2023-12-14T15:24:55;5.70;99.90
9998;DHT22;5038;53.064;8.624;2023-12-14T15:27:23;5.70;99.90
9998;DHT22;5038;53.064;8.624;2023-12-14T15:29:52;5.70;99.90
9998;DHT22;5038;53.064;8.624;2023-12-14T15:32:21;5.70;99.90
9998;DHT22;5038;53.064;8.624;2023-12-14T15:34:49;5.70;99.90
9998;DHT22;5038;53.064;8.624;2023-12-14T15:37:18;5.70;99.90
9998;DHT22;5038;53.064;8.624;2023-12-14T15:39:46;5.70;99.90
9998;DHT22;5038;53.064;8.624;2023-12-14T15:42:17;5.70;99.90
9998;DHT22;5038;53.064;8.624;2023-12-14T15:44:46;5.70;99.90
9998;DHT22;5038;53.064;8.624;2023-12-14T15:47:14;5.70;99.90
9998;DHT22;5038;53.064;8.624;2023-12-14T15:49:43;5.60;99.90
9998;DHT22;5038;53.064;8.624;2023-12-14T15:52:12;5.60;99.90
9998;DHT22;5038;53.064;8.624;2023-12-14T15:54:40;5.60;99.90
9998;DHT22;5038;53.064;8.624;2023-12-14T15:57:09;5.60;99.90
9998;DHT22;5038;53.064;8.624;2023-12-14T15:59:38;5.60;99.90
9998;DHT22;5038;53.064;8.624;2023-12-14T16:02:06;5.60;99.90
9998;DHT22;5038;53.064;8.624;2023-12-14T16:04:35;5.60;99.90
9998;DHT22;5038;53.064;8.624;2023-12-14T16:07:03;5.60;99.90
9998;DHT22;5038;53.064;8.624;2023-12-14T16:09:32;5.50;99.90
9998;DHT22;5038;53.064;8.624;2023-12-14T16:12:00;5.50;99.90
9998;DHT22;5038;53.064;8.624;2023-12-14T16:14:31;5.50;99.90
9998;DHT22;5038;53.064;8.624;2023-12-14T16:17:01;5.50;99.90
9998;DHT22;5038;53.064;8.624;2023-12-14T16:19:29;5.50;99.90
9998;DHT22;5038;53.064;8.624;2023-12-14T16:21:58;5.40;99.90
9998;DHT22;5038;53.064;8.624;2023-12-14T16:24:26;5.50;99.90
9998;DHT22;5038;53.064;8.624;2023-12-14T16:26:54;5.50;99.90
9998;DHT22;5038;53.064;8.624;2023-12-14T16:29:25;5.50;99.90
9998;DHT22;5038;53.064;8.624;2023-12-14T16:31:54;5.40;99.90